Time;durP1;ratioP1;P1;durP2;ratioP2;P2;SDS_P1;SDS_P2;PMS_P1;PMS_P2;Temp;Humidity;BMP_temperature;BMP_pressure;BME280_temperature;BME280_humidity;BME280_pressure;Samples;Min_cycle;Max_cycle;Signal;HPM_P1;HPM_P2
2023/10/13 00:01:34;;;;;;;0.80;0.80;;;;;;;15.66;97.58;100479.59;5031962;28;20038;-67
2023/10/13 00:04:01;;;;;;;3.28;0.80;;;;;;;15.72;97.43;100488.13;5030501;28;20017;-66
2023/10/13 00:06:27;;;;;;;2.17;0.82;;;;;;;15.74;97.41;100480.34;5029397;28;20025;-67
2023/10/13 00:08:52;;;;;;;1.58;0.77;;;;;;;15.50;98.79;100482.00;5030055;28;20037;-68
2023/10/13 00:11:21;;;;;;;3.33;0.88;;;;;;;15.54;98.77;100474.63;5020586;28;20494;-67
2023/10/13 00:13:52;;;;;;;1.55;0.70;;;;;;;15.58;98.33;100478.06;5027441;28;20041;-67
2023/10/13 00:16:21;;;;;;;1.52;0.73;;;;;;;15.41;100.00;100473.44;5031726;28;20120;-67
2023/10/13 00:18:48;;;;;;;1.98;0.90;;;;;;;15.56;99.44;100469.59;5026735;28;20081;-67
2023/10/13 00:21:30;;;;;;;2.03;0.77;;;;;;;15.58;99.47;100474.59;5031080;28;20029;-68
2023/10/13 00:23:57;;;;;;;1.42;0.85;;;;;;;15.68;99.07;100465.66;5030255;28;20029;-66
2023/10/13 00:26:28;;;;;;;3.70;1.10;;;;;;;15.64;98.91;100459.47;5029009;28;20029;-67
2023/10/13 00:29:09;;;;;;;2.10;1.02;;;;;;;15.46;100.00;100458.75;5030382;28;20056;-67
2023/10/13 00:31:48;;;;;;;1.05;0.75;;;;;;;15.58;100.00;100466.47;5030759;28;20025;-68
2023/10/13 00:34:27;;;;;;;3.78;1.10;;;;;;;15.66;99.66;100455.16;5031824;28;20088;-68
2023/10/13 00:37:16;;;;;;;6.55;1.40;;;;;;;15.62;100.00;100450.94;5032413;28;20397;-67
2023/10/13 00:39:45;;;;;;;4.95;1.45;;;;;;;15.39;100.00;100445.91;5027022;28;20033;-68
2023/10/13 00:42:47;;;;;;;3.22;1.40;;;;;;;15.56;100.00;100447.88;5014166;28;20048;-68
2023/10/13 00:45:07;;;;;;;1.60;1.27;;;;;;;15.71;100.00;100445.84;5026512;28;20079;-67
2023/10/13 00:50:01;;;;;;;4.85;1.23;;;;;;;15.64;100.00;100438.50;5030388;28;20430;-67
2023/10/13 00:52:29;;;;;;;3.45;1.35;;;;;;;15.72;100.00;100428.38;5047744;28;20033;-67
2023/10/13 00:54:55;;;;;;;5.20;1.20;;;;;;;15.77;100.00;100428.78;5027707;28;20099;-68
2023/10/13 00:57:26;;;;;;;1.65;1.10;;;;;;;15.83;100.00;100438.03;5028156;28;20497;-66
2023/10/13 01:00:12;;;;;;;1.92;1.17;;;;;;;15.72;100.00;100426.44;5029806;28;20037;-68
2023/10/13 01:02:38;;;;;;;4.90;1.30;;;;;;;15.77;100.00;100419.84;5021142;28;20387;-66
2023/10/13 01:05:09;;;;;;;5.38;1.65;;;;;;;15.71;100.00;100422.19;5027508;28;20029;-68
2023/10/13 01:07:38;;;;;;;3.75;1.55;;;;;;;15.52;100.00;100411.03;5022878;28;20033;-67
2023/10/13 01:10:04;;;;;;;7.72;1.92;;;;;;;15.65;100.00;100414.84;5028815;28;20034;-67
2023/10/13 01:12:30;;;;;;;5.22;2.10;;;;;;;15.77;100.00;100414.41;5030869;28;20044;-67
2023/10/13 01:14:59;;;;;;;5.90;1.50;;;;;;;15.84;100.00;100409.72;5028497;28;20413;-65
2023/10/13 01:17:31;;;;;;;3.90;1.83;;;;;;;15.89;100.00;100400.38;5031053;28;20155;-67
2023/10/13 01:19:58;;;;;;;2.25;1.52;;;;;;;15.87;100.00;100403.47;5029276;28;20032;-67
2023/10/13 01:22:24;;;;;;;3.95;1.58;;;;;;;15.94;100.00;100398.03;5042873;28;20040;-67
2023/10/13 01:25:04;;;;;;;8.65;1.45;;;;;;;15.97;100.00;100391.00;5028650;28;20040;-68
2023/10/13 01:27:29;;;;;;;4.65;1.65;;;;;;;15.98;100.00;100385.19;5022793;28;20037;-67
2023/10/13 01:30:09;;;;;;;5.45;2.03;;;;;;;16.02;100.00;100387.88;5026894;28;20083;-67
2023/10/13 01:32:40;;;;;;;5.20;2.05;;;;;;;15.84;100.00;100387.22;5025947;28;20037;-68
2023/10/13 01:35:07;;;;;;;9.57;2.42;;;;;;;15.56;100.00;100388.16;5049374;28;20025;-67
2023/10/13 01:37:32;;;;;;;7.55;2.10;;;;;;;15.61;100.00;100384.22;5025238;28;20025;-67
2023/10/13 01:39:58;;;;;;;7.15;1.90;;;;;;;15.55;100.00;100377.66;5027851;28;20033;-67
2023/10/13 01:42:24;;;;;;;9.27;1.92;;;;;;;15.77;100.00;100377.19;5027748;28;20032;-66
2023/10/13 01:44:50;;;;;;;4.00;2.50;;;;;;;15.73;100.00;100364.78;5031041;28;20025;-67
2023/10/13 01:47:16;;;;;;;8.43;2.40;;;;;;;15.81;100.00;100355.44;5030516;28;20061;-68
2023/10/13 01:49:43;;;;;;;7.72;2.25;;;;;;;15.83;100.00;100351.13;5027515;28;20102;-68
2023/10/13 01:52:15;;;;;;;8.52;2.28;;;;;;;15.74;100.00;100350.81;5028957;28;20034;-67
2023/10/13 01:54:44;;;;;;;6.13;1.92;;;;;;;15.81;100.00;100353.50;5028927;28;20045;-67
2023/10/13 01:57:14;;;;;;;8.38;2.42;;;;;;;15.70;100.00;100352.75;5026722;28;20044;-67
2023/10/13 01:59:49;;;;;;;5.90;2.15;;;;;;;15.67;100.00;100350.06;5028063;28;20048;-67
2023/10/13 02:02:19;;;;;;;8.85;2.58;;;;;;;15.77;100.00;100331.00;5027022;28;20032;-67
2023/10/13 02:04:57;;;;;;;6.63;2.20;;;;;;;15.77;100.00;100328.28;5014241;28;20049;-66
2023/10/13 02:07:29;;;;;;;7.38;2.40;;;;;;;15.94;100.00;100335.56;5030102;28;20405;-68
2023/10/13 02:09:58;;;;;;;4.53;1.98;;;;;;;15.74;100.00;100323.66;5025824;28;20026;-67
2023/10/13 02:12:36;;;;;;;7.38;2.40;;;;;;;15.69;100.00;100318.66;5029736;28;20060;-66
2023/10/13 02:15:04;;;;;;;7.50;2.35;;;;;;;15.87;100.00;100311.13;5028408;28;20845;-67
2023/10/13 02:17:40;;;;;;;10.90;2.42;;;;;;;16.01;100.00;100313.75;5015838;28;20033;-68
2023/10/13 02:20:08;;;;;;;6.78;2.22;;;;;;;15.80;100.00;100305.75;5024408;28;20517;-66
2023/10/13 02:22:35;;;;;;;9.07;2.75;;;;;;;15.99;100.00;100299.81;5028896;28;20048;-64
2023/10/13 02:25:01;;;;;;;7.47;2.42;;;;;;;16.02;100.00;100298.25;5026515;28;20076;-67
2023/10/13 02:27:27;;;;;;;10.55;2.45;;;;;;;16.06;100.00;100297.06;5026199;28;20056;-67
2023/10/13 02:29:58;;;;;;;7.85;2.38;;;;;;;16.00;100.00;100300.59;5030690;28;20025;-67
2023/10/13 02:32:24;;;;;;;10.13;2.55;;;;;;;16.13;100.00;100299.69;5026137;28;20036;-67
2023/10/13 02:34:49;;;;;;;14.68;3.05;;;;;;;16.03;100.00;100291.63;5028556;28;20437;-67
2023/10/13 02:37:18;;;;;;;7.93;2.92;;;;;;;15.81;100.00;100282.88;5026425;28;20034;-66
2023/10/13 02:39:47;;;;;;;12.95;3.42;;;;;;;15.91;100.00;100284.72;5026029;28;20045;-67
2023/10/13 02:42:24;;;;;;;8.73;2.90;;;;;;;16.03;100.00;100276.09;5029789;28;20024;-67
2023/10/13 02:44:50;;;;;;;9.57;2.47;;;;;;;15.97;100.00;100280.41;5023134;28;20041;-66
2023/10/13 02:47:19;;;;;;;6.35;2.65;;;;;;;16.10;100.00;100273.31;5026761;28;20025;-66
2023/10/13 02:49:47;;;;;;;9.82;3.50;;;;;;;16.08;100.00;100272.97;5024726;28;20037;-67
2023/10/13 02:52:13;;;;;;;6.97;2.95;;;;;;;16.17;100.00;100267.84;5017532;28;20037;-67
2023/10/13 02:54:46;;;;;;;7.60;3.72;;;;;;;15.97;100.00;100261.41;5026732;28;20037;-67
2023/10/13 02:57:18;;;;;;;9.25;3.05;;;;;;;16.14;100.00;100260.47;5024845;28;20236;-66
2023/10/13 02:59:47;;;;;;;;;;;;;;;16.01;100.00;100262.16;5021890;28;20520;-66
2023/10/13 03:02:30;;;;;;;6.72;3.08;;;;;;;15.91;100.00;100257.56;5031082;28;19916;-67
2023/10/13 03:05:04;;;;;;;8.85;2.75;;;;;;;16.01;100.00;100251.28;5028536;28;20022;-66
2023/10/13 03:07:31;;;;;;;11.18;3.42;;;;;;;16.03;100.00;100256.31;5012885;28;20037;-67
2023/10/13 03:09:59;;;;;;;8.52;2.90;;;;;;;15.96;100.00;100240.84;5028272;28;20036;-67
2023/10/13 03:12:26;;;;;;;8.18;2.78;;;;;;;16.01;100.00;100240.41;5030392;28;20045;-68
2023/10/13 03:14:55;;;;;;;7.13;2.85;;;;;;;16.03;100.00;100232.63;5012397;28;20114;-68
2023/10/13 03:17:33;;;;;;;13.60;2.97;;;;;;;16.18;100.00;100222.44;5030565;28;20476;-67
2023/10/13 03:19:59;;;;;;;9.13;2.83;;;;;;;16.21;100.00;100230.53;5027686;28;20021;-66
2023/10/13 03:22:31;;;;;;;7.43;3.13;;;;;;;16.28;100.00;100229.69;5026612;28;20104;-66
2023/10/13 03:25:12;;;;;;;9.27;2.45;;;;;;;16.37;100.00;100227.28;5028450;28;20083;-66
2023/10/13 03:30:34;;;;;;;8.63;2.83;;;;;;;16.25;100.00;100216.91;5003328;28;20712;-67
2023/10/13 03:33:00;;;;;;;7.05;2.88;;;;;;;15.98;100.00;100208.63;5022641;28;20107;-67
2023/10/13 03:35:37;;;;;;;9.23;2.47;;;;;;;16.13;100.00;100198.41;5025652;28;20025;-68
2023/10/13 03:38:03;;;;;;;8.10;2.72;;;;;;;16.18;100.00;100200.69;5026566;28;20034;-68
2023/10/13 03:45:48;;;;;;;6.68;2.47;;;;;;;16.15;100.00;100201.47;5030266;28;20045;-68
2023/10/13 03:51:06;;;;;;;8.00;2.83;;;;;;;16.43;100.00;100192.28;5032721;28;20037;-68
2023/10/13 03:53:33;;;;;;;4.80;2.50;;;;;;;16.36;100.00;100181.47;5014204;28;20625;-68
2023/10/13 03:56:12;;;;;;;8.85;2.88;;;;;;;16.44;100.00;100182.94;5027476;28;20021;-67
2023/10/13 03:58:47;;;;;;;7.55;3.00;;;;;;;16.48;100.00;100183.66;5023525;28;20502;-67
2023/10/13 04:01:16;;;;;;;7.28;2.45;;;;;;;16.39;100.00;100172.50;5025594;28;20041;-68
2023/10/13 04:03:57;;;;;;;6.40;2.80;;;;;;;16.26;100.00;100162.16;5024046;28;20066;-68
2023/10/13 04:17:15;;;;;;;7.40;2.92;;;;;;;16.48;100.00;100151.03;5032023;28;20064;-69
2023/10/13 04:31:11;;;;;;;6.72;2.55;;;;;;;16.74;100.00;100142.22;5026387;28;20044;-68
2023/10/13 04:33:43;;;;;;;7.20;2.60;;;;;;;16.72;100.00;100128.25;5023173;28;20041;-68
2023/10/13 04:36:13;;;;;;;7.57;3.20;;;;;;;16.78;100.00;100129.34;5020391;28;20030;-67
2023/10/13 04:49:35;;;;;;;7.90;3.55;;;;;;;16.82;100.00;100108.31;5032473;28;20037;-68
2023/10/13 04:54:59;;;;;;;10.13;3.85;;;;;;;16.96;100.00;100094.47;5030711;28;20618;-67
2023/10/13 05:00:55;;;;;;;9.45;3.53;;;;;;;16.90;100.00;100083.28;5028932;28;20037;-68
2023/10/13 06:29:53;;;;;;;13.65;5.60;;;;;;;17.85;100.00;99994.53;5025728;28;20037;-68
2023/10/13 06:32:19;;;;;;;18.55;6.30;;;;;;;17.89;100.00;99997.19;5043901;28;20560;-69
2023/10/13 06:34:45;;;;;;;14.88;6.32;;;;;;;17.92;100.00;99993.66;5027791;28;20099;-68
2023/10/13 06:37:23;;;;;;;17.98;6.07;;;;;;;17.94;100.00;99986.56;5029121;28;20454;-68
2023/10/13 06:39:49;;;;;;;17.50;6.80;;;;;;;17.99;100.00;99988.81;5030356;28;20033;-68
2023/10/13 06:42:16;;;;;;;12.95;5.85;;;;;;;18.01;100.00;99986.44;5030502;28;20071;-69
2023/10/13 06:44:53;;;;;;;15.30;6.68;;;;;;;18.05;100.00;99978.19;5030001;28;20025;-67
2023/10/13 06:47:20;;;;;;;16.70;6.40;;;;;;;17.94;100.00;99977.66;5024610;28;20448;-69
2023/10/13 06:49:48;;;;;;;16.48;6.60;;;;;;;18.09;100.00;99978.88;5029300;28;20131;-68
2023/10/13 06:52:14;;;;;;;14.75;5.85;;;;;;;18.09;100.00;99987.06;5028659;28;20024;-69
2023/10/13 06:54:40;;;;;;;15.52;6.03;;;;;;;18.08;100.00;99973.84;5030986;28;20037;-69
2023/10/13 06:57:14;;;;;;;19.23;7.03;;;;;;;18.12;100.00;99980.00;5024852;28;20104;-68
2023/10/13 06:59:42;;;;;;;16.02;6.20;;;;;;;18.07;100.00;99975.03;5008177;28;20033;-68
2023/10/13 07:02:09;;;;;;;21.13;7.20;;;;;;;18.13;100.00;99967.88;5030298;28;20035;-68
2023/10/13 07:04:39;;;;;;;18.85;6.78;;;;;;;18.12;100.00;99966.38;5026409;28;20082;-68
2023/10/13 07:07:10;;;;;;;13.90;6.25;;;;;;;18.19;100.00;99958.03;5026026;28;20505;-69
2023/10/13 07:12:06;;;;;;;19.50;7.45;;;;;;;18.24;100.00;99947.38;5027075;28;20041;-68
2023/10/13 07:14:41;;;;;;;19.27;7.38;;;;;;;18.26;100.00;99938.78;5027571;28;20030;-68
2023/10/13 07:17:10;;;;;;;15.27;7.30;;;;;;;18.25;100.00;99939.97;5025030;28;20563;-68
2023/10/13 07:19:45;;;;;;;13.77;6.78;;;;;;;18.20;100.00;99940.47;5025741;28;20025;-67
2023/10/13 07:22:19;;;;;;;15.23;6.35;;;;;;;18.22;100.00;99940.81;5028580;28;20406;-68
2023/10/13 07:24:49;;;;;;;15.80;6.20;;;;;;;18.25;100.00;99940.75;5025047;28;20025;-67
2023/10/13 07:27:24;;;;;;;14.82;6.85;;;;;;;18.34;100.00;99937.44;5024998;28;20371;-68
2023/10/13 07:30:14;;;;;;;17.80;7.13;;;;;;;18.31;100.00;99930.84;5021679;28;20033;-67
2023/10/13 07:32:45;;;;;;;17.60;6.80;;;;;;;18.40;100.00;99933.78;5027397;28;20057;-68
2023/10/13 07:35:24;;;;;;;18.73;7.60;;;;;;;18.41;100.00;99927.13;5026689;28;20045;-68
2023/10/13 07:37:52;;;;;;;13.77;6.35;;;;;;;18.34;100.00;99915.63;5029059;28;20498;-69
2023/10/13 07:42:50;;;;;;;13.05;5.85;;;;;;;18.37;100.00;99912.06;5026317;28;20083;-68
2023/10/13 07:45:24;;;;;;;14.80;6.65;;;;;;;18.40;100.00;99895.59;5029788;28;20030;-68
2023/10/13 07:47:51;;;;;;;14.55;6.50;;;;;;;18.42;100.00;99885.06;5033473;28;20460;-68
2023/10/13 07:50:27;;;;;;;13.07;5.50;;;;;;;18.41;100.00;99871.81;5031396;28;20473;-69
2023/10/13 07:53:00;;;;;;;13.40;5.95;;;;;;;18.40;100.00;99886.66;5032030;28;20067;-69
2023/10/13 07:55:26;;;;;;;13.27;6.00;;;;;;;18.42;100.00;99865.19;5027189;28;20029;-69
2023/10/13 07:57:54;;;;;;;12.68;5.38;;;;;;;18.40;100.00;99864.84;5028795;28;20486;-69
2023/10/13 08:06:06;;;;;;;13.55;5.63;;;;;;;18.41;100.00;99842.59;5030196;28;20057;-69
2023/10/13 08:08:39;;;;;;;10.65;4.18;;;;;;;18.37;100.00;99833.72;5031036;28;20045;-68
2023/10/13 08:11:11;;;;;;;9.80;4.85;;;;;;;18.41;100.00;99831.69;5027349;28;20034;-70
2023/10/13 08:13:38;;;;;;;10.23;4.40;;;;;;;18.51;100.00;99832.63;5027637;28;20508;-68
2023/10/13 08:16:09;;;;;;;9.68;4.75;;;;;;;18.51;100.00;99821.72;5029038;28;20504;-69
2023/10/13 08:18:35;;;;;;;11.98;4.85;;;;;;;18.57;100.00;99809.09;5029766;28;20045;-70
2023/10/13 08:21:05;;;;;;;9.60;5.10;;;;;;;18.38;100.00;99796.31;5030419;28;20056;-69
2023/10/13 08:23:57;;;;;;;9.40;4.50;;;;;;;18.39;100.00;99800.59;5032594;28;20508;-70
2023/10/13 08:40:23;;;;;;;7.50;3.60;;;;;;;18.47;100.00;99788.31;5030379;28;20038;-69
2023/10/13 08:45:20;;;;;;;7.72;3.95;;;;;;;18.32;100.00;99781.69;5025564;28;20034;-70
2023/10/13 08:48:34;;;;;;;7.85;4.10;;;;;;;18.28;100.00;99781.78;5028581;28;20084;-70
2023/10/13 08:50:55;;;;;;;7.53;3.63;;;;;;;18.41;100.00;99776.38;5020062;28;20099;-69
2023/10/13 08:53:33;;;;;;;7.88;3.85;;;;;;;18.56;100.00;99780.31;5031162;28;20701;-68
2023/10/13 09:12:20;;;;;;;4.70;2.80;;;;;;;18.55;100.00;99781.50;5031189;28;20068;-70
2023/10/13 09:15:05;;;;;;;8.57;3.05;;;;;;;18.63;100.00;99789.06;5026700;28;20117;-69
2023/10/13 09:17:34;;;;;;;4.15;2.63;;;;;;;18.62;100.00;99792.25;5027025;28;20040;-69
2023/10/13 09:20:23;;;;;;;4.93;2.38;;;;;;;18.70;100.00;99791.59;5030482;28;20041;-69
2023/10/13 09:25:38;;;;;;;4.72;3.33;;;;;;;18.67;100.00;99787.03;5028959;28;20490;-70
2023/10/13 09:28:22;;;;;;;4.13;2.45;;;;;;;18.80;100.00;99784.31;5027171;28;20417;-69
2023/10/13 09:30:53;;;;;;;3.83;2.58;;;;;;;18.81;100.00;99785.88;5029398;28;20025;-69
2023/10/13 09:33:32;;;;;;;3.10;1.50;;;;;;;18.85;100.00;99792.75;5027665;28;20127;-69
2023/10/13 09:36:06;;;;;;;3.10;1.92;;;;;;;18.87;100.00;99778.69;5025863;28;20050;-70
2023/10/13 09:38:33;;;;;;;4.18;2.15;;;;;;;19.00;100.00;99779.47;5030404;28;20037;-70
2023/10/13 09:41:09;;;;;;;3.88;2.00;;;;;;;18.84;100.00;99774.84;5028587;28;20041;-69
2023/10/13 09:43:37;;;;;;;2.42;1.73;;;;;;;18.94;100.00;99773.03;5029355;28;20120;-69
2023/10/13 09:46:07;;;;;;;4.93;1.83;;;;;;;19.00;100.00;99773.25;5028540;28;20033;-70
2023/10/13 09:48:33;;;;;;;2.40;1.65;;;;;;;18.98;100.00;99756.53;5028259;28;20104;-70
2023/10/13 09:51:02;;;;;;;2.90;2.20;;;;;;;19.03;100.00;99756.78;5028119;28;20112;-71
2023/10/13 09:53:29;;;;;;;3.25;1.63;;;;;;;19.10;100.00;99764.00;5042166;28;20064;-70
2023/10/13 09:56:10;;;;;;;5.70;1.75;;;;;;;19.15;100.00;99764.22;5023658;28;20040;-69
2023/10/13 09:58:37;;;;;;;3.20;1.35;;;;;;;19.19;100.00;99753.19;5020637;28;20025;-69
2023/10/13 10:01:09;;;;;;;4.90;2.20;;;;;;;19.14;100.00;99759.97;5024503;28;20037;-71
2023/10/13 10:03:50;;;;;;;5.32;1.83;;;;;;;19.18;100.00;99748.94;5024869;28;20044;-70
2023/10/13 10:06:28;;;;;;;2.70;1.58;;;;;;;19.23;100.00;99729.28;5025884;28;20037;-69
2023/10/13 10:09:11;;;;;;;4.35;1.75;;;;;;;19.23;100.00;99735.50;5026804;28;20120;-70
2023/10/13 10:11:40;;;;;;;4.28;1.75;;;;;;;19.28;100.00;99726.03;5024404;28;20079;-69
2023/10/13 10:14:37;;;;;;;2.22;1.52;;;;;;;19.29;100.00;99711.94;5027907;28;20034;-68
2023/10/13 10:17:09;;;;;;;2.25;1.73;;;;;;;19.32;100.00;99705.63;5041661;28;20615;-69
2023/10/13 10:20:05;;;;;;;4.93;1.60;;;;;;;19.37;100.00;99707.03;5024353;28;20083;-68
2023/10/13 10:22:38;;;;;;;3.38;1.58;;;;;;;19.39;100.00;99704.66;5025472;28;20047;-70
2023/10/13 10:25:24;;;;;;;8.50;2.15;;;;;;;19.42;100.00;99692.84;5028122;28;20037;-69
2023/10/13 10:27:59;;;;;;;2.33;1.60;;;;;;;19.38;100.00;99694.91;5027615;28;20040;-68
2023/10/13 10:30:25;;;;;;;5.70;2.03;;;;;;;19.29;100.00;99690.09;5027748;28;20037;-71
2023/10/13 10:33:00;;;;;;;3.03;1.92;;;;;;;19.28;100.00;99683.09;5027826;28;20478;-70
2023/10/13 10:35:29;;;;;;;3.50;1.73;;;;;;;19.36;100.00;99676.22;5023762;28;20030;-71
2023/10/13 10:38:13;;;;;;;4.35;1.98;;;;;;;19.47;100.00;99665.72;5024743;28;20638;-69
2023/10/13 10:41:13;;;;;;;3.85;1.95;;;;;;;19.52;100.00;99667.94;5024656;28;20414;-68
2023/10/13 10:43:42;;;;;;;4.85;2.20;;;;;;;19.42;100.00;99660.81;5016489;28;20053;-69
2023/10/13 10:46:42;;;;;;;3.35;2.03;;;;;;;19.55;100.00;99666.28;5022608;28;20018;-69
2023/10/13 10:49:08;;;;;;;8.77;1.93;;;;;;;19.55;100.00;99653.38;5023318;28;20105;-69
2023/10/13 10:51:43;;;;;;;3.42;2.05;;;;;;;19.56;100.00;99643.22;5025819;28;20041;-69
2023/10/13 10:54:18;;;;;;;4.10;2.35;;;;;;;19.71;100.00;99642.31;5028178;28;20026;-70
2023/10/13 10:56:44;;;;;;;6.15;2.30;;;;;;;19.52;100.00;99629.69;5013205;28;20033;-69
2023/10/13 10:59:19;;;;;;;3.80;1.95;;;;;;;19.58;100.00;99625.19;5026756;28;20398;-68
2023/10/13 11:01:50;;;;;;;3.20;2.03;;;;;;;19.65;100.00;99622.22;5029862;28;20039;-68
2023/10/13 11:06:57;;;;;;;3.22;2.45;;;;;;;19.94;100.00;99607.59;5030429;28;20021;-69
2023/10/13 11:12:06;;;;;;;4.07;2.08;;;;;;;20.01;100.00;99607.34;5027593;28;20433;-68
2023/10/13 11:14:32;;;;;;;8.00;2.17;;;;;;;19.96;100.00;99591.47;5024741;28;20615;-69
2023/10/13 11:17:13;;;;;;;4.20;2.20;;;;;;;20.16;100.00;99591.94;5025628;28;20108;-69
2023/10/13 11:19:41;;;;;;;3.25;2.03;;;;;;;20.18;100.00;99592.28;5026041;28;20037;-68
2023/10/13 11:22:32;;;;;;;3.70;2.13;;;;;;;20.03;100.00;99594.75;5023869;28;20065;-69
2023/10/13 11:25:10;;;;;;;2.80;2.15;;;;;;;20.15;100.00;99593.91;5027493;28;20025;-67
2023/10/13 11:30:19;;;;;;;4.13;2.50;;;;;;;20.13;100.00;99554.56;5042400;28;20026;-69
2023/10/13 11:32:56;;;;;;;6.53;1.83;;;;;;;20.26;100.00;99544.34;5026082;28;20037;-68
2023/10/13 11:35:22;;;;;;;6.63;2.38;;;;;;;20.43;100.00;99540.19;5022690;28;20147;-69
2023/10/13 11:37:56;;;;;;;7.15;2.58;;;;;;;20.48;100.00;99528.63;5027345;28;20030;-69
2023/10/13 11:40:43;;;;;;;2.78;2.10;;;;;;;20.44;100.00;99528.03;5024877;28;21206;-69
2023/10/13 11:43:17;;;;;;;7.47;2.65;;;;;;;;;;5011433;28;20417;-69
2023/10/13 11:48:41;;;;;;;5.53;2.50;;;;;;;20.39;100.00;99523.91;5006026;28;20049;-69
2023/10/13 11:51:25;;;;;;;4.95;2.50;;;;;;;20.61;100.00;99499.97;5027821;28;20116;-69
2023/10/13 11:53:51;;;;;;;4.05;2.53;;;;;;;20.53;100.00;99498.75;5022429;28;20120;-69
2023/10/13 11:56:20;;;;;;;9.93;2.28;;;;;;;20.64;100.00;99509.25;5026590;28;20465;-69
2023/10/13 11:58:46;;;;;;;3.55;2.28;;;;;;;20.43;100.00;99485.47;5027915;28;20053;-68
2023/10/13 12:11:39;;;;;;;6.85;2.47;;;;;;;20.80;100.00;99480.88;5020609;28;20114;-69
2023/10/13 12:14:19;;;;;;;4.38;2.45;;;;;;;20.81;100.00;99483.16;5025612;28;20026;-70
2023/10/13 12:16:55;;;;;;;5.00;2.75;;;;;;;20.85;100.00;99472.09;5027430;28;20479;-70
2023/10/13 12:19:23;;;;;;;7.47;2.60;;;;;;;20.94;100.00;99456.44;5026243;28;20049;-68
2023/10/13 12:21:49;;;;;;;4.55;2.13;;;;;;;21.03;100.00;99478.38;5027347;28;20030;-69
2023/10/13 12:27:18;;;;;;;7.30;2.42;;;;;;;20.97;100.00;99468.44;5025523;28;20054;-71
2023/10/13 12:29:48;;;;;;;6.32;2.45;;;;;;;21.08;100.00;99466.81;5031163;28;20052;-68
2023/10/13 12:32:14;;;;;;;5.03;2.28;;;;;;;21.14;100.00;99451.28;5026538;28;20033;-69
2023/10/13 12:37:49;;;;;;;5.95;2.05;;;;;;;21.27;100.00;99478.56;5028336;28;20034;-69
2023/10/13 12:51:20;;;;;;;9.20;2.88;;;;;;;21.28;100.00;99472.59;5025410;28;20527;-68
2023/10/13 12:53:47;;;;;;;7.90;2.38;;;;;;;21.23;100.00;99465.00;5031117;28;20140;-68
2023/10/13 12:56:13;;;;;;;5.10;2.85;;;;;;;21.29;100.00;99474.13;5028929;28;20208;-68
2023/10/13 12:58:39;;;;;;;4.05;2.40;;;;;;;21.20;100.00;99457.69;5028001;28;20537;-69
2023/10/13 13:01:06;;;;;;;8.60;2.75;;;;;;;21.29;100.00;99460.41;5022864;28;20160;-68
2023/10/13 13:03:32;;;;;;;6.43;2.85;;;;;;;21.28;100.00;99450.69;5029383;28;20063;-67
2023/10/13 13:05:58;;;;;;;5.07;2.00;;;;;;;21.23;100.00;99448.56;5021765;28;20045;-67
2023/10/13 13:08:24;;;;;;;6.22;2.30;;;;;;;21.32;100.00;99432.13;5021485;28;20033;-69
2023/10/13 13:10:51;;;;;;;16.48;2.67;;;;;;;21.40;100.00;99424.34;5024632;28;20071;-68
2023/10/13 13:13:24;;;;;;;6.03;2.58;;;;;;;21.47;100.00;99438.50;5026393;28;20045;-68
2023/10/13 13:15:50;;;;;;;5.85;2.80;;;;;;;21.38;100.00;99427.56;5026513;28;20298;-68
2023/10/13 13:18:15;;;;;;;10.98;3.70;;;;;;;21.38;100.00;99416.59;5024580;28;20038;-70
2023/10/13 13:20:52;;;;;;;6.68;2.50;;;;;;;21.31;100.00;99419.63;5027713;28;20033;-70
2023/10/13 13:23:19;;;;;;;7.88;2.50;;;;;;;21.44;100.00;99403.81;5026279;28;20417;-69
2023/10/13 13:25:47;;;;;;;6.32;2.22;;;;;;;21.51;100.00;99405.47;5031567;28;20406;-69
2023/10/13 13:28:15;;;;;;;7.72;2.53;;;;;;;21.54;100.00;99397.06;5022918;28;20040;-71
2023/10/13 13:30:43;;;;;;;4.78;2.65;;;;;;;21.63;100.00;99390.84;5027838;28;20402;-69
2023/10/13 13:33:12;;;;;;;15.55;2.65;;;;;;;21.76;100.00;99385.91;5027998;28;20033;-67
2023/10/13 13:35:38;;;;;;;4.25;2.25;;;;;;;21.80;100.00;99385.75;5031402;28;20042;-69
2023/10/13 13:38:09;;;;;;;6.82;2.60;;;;;;;21.89;100.00;99375.53;5026329;28;20124;-68
2023/10/13 13:40:39;;;;;;;5.28;2.53;;;;;;;21.92;100.00;99362.88;5025300;28;20409;-69
2023/10/13 13:43:06;;;;;;;4.50;2.28;;;;;;;21.87;100.00;99358.06;5030399;28;20095;-70
2023/10/13 13:45:34;;;;;;;11.23;3.13;;;;;;;21.98;100.00;99361.03;5022686;28;20034;-68
2023/10/13 13:48:04;;;;;;;6.47;2.17;;;;;;;21.97;100.00;99351.31;5024973;28;20033;-68
2023/10/13 13:50:32;;;;;;;8.10;2.53;;;;;;;21.98;100.00;99347.31;5026326;28;20036;-68
2023/10/13 13:52:57;;;;;;;7.55;2.22;;;;;;;22.03;100.00;99349.44;5026558;28;20037;-69
2023/10/13 13:55:26;;;;;;;6.13;2.45;;;;;;;22.03;99.32;99347.44;5023210;28;20072;-68
2023/10/13 13:57:51;;;;;;;5.68;2.30;;;;;;;21.97;99.39;99323.88;5006447;28;20067;-68
2023/10/13 14:00:21;;;;;;;5.78;2.53;;;;;;;21.96;98.90;99331.34;5022116;28;20041;-68
2023/10/13 14:02:47;;;;;;;8.23;2.30;;;;;;;21.98;99.37;99331.66;5021857;28;20379;-69
2023/10/13 14:05:15;;;;;;;9.27;2.60;;;;;;;21.91;98.68;99336.72;5026699;28;20041;-69
2023/10/13 14:07:50;;;;;;;4.22;2.25;;;;;;;21.99;98.77;99329.66;5024452;28;20046;-69
2023/10/13 14:13:13;;;;;;;10.15;2.83;;;;;;;21.95;97.74;99353.75;5012078;28;20438;-69
2023/10/13 14:15:44;;;;;;;4.78;2.42;;;;;;;21.89;97.50;99336.41;5022441;28;20525;-68
2023/10/13 14:18:15;;;;;;;5.20;2.25;;;;;;;21.81;97.17;99335.22;5026336;28;20072;-68
2023/10/13 14:20:42;;;;;;;6.78;2.40;;;;;;;21.87;97.84;99319.66;5022810;28;20068;-67
2023/10/13 14:23:13;;;;;;;7.88;3.10;;;;;;;21.85;97.37;99316.63;5039834;28;20116;-69
2023/10/13 14:25:44;;;;;;;8.85;2.50;;;;;;;21.73;98.13;99306.59;5028371;28;20079;-69
2023/10/13 14:28:11;;;;;;;10.18;2.70;;;;;;;21.62;98.79;99289.88;5029594;28;20502;-69
2023/10/13 14:30:37;;;;;;;3.92;2.40;;;;;;;21.54;98.47;99300.44;5022663;28;20528;-68
2023/10/13 14:33:02;;;;;;;7.68;2.85;;;;;;;21.61;98.54;99308.31;5025289;28;20060;-69
2023/10/13 14:35:28;;;;;;;8.43;2.72;;;;;;;21.64;98.09;99312.84;5029783;28;20037;-70
2023/10/13 14:37:54;;;;;;;7.85;3.05;;;;;;;21.72;98.11;99313.31;5020911;28;20037;-69
2023/10/13 14:40:23;;;;;;;8.30;2.58;;;;;;;21.71;98.08;99306.28;5023669;28;20040;-69
2023/10/13 14:42:49;;;;;;;6.95;2.78;;;;;;;21.68;98.25;99304.47;5025143;28;20037;-70
2023/10/13 14:45:16;;;;;;;7.40;2.78;;;;;;;21.59;98.60;99302.53;5020453;28;20021;-69
2023/10/13 14:47:45;;;;;;;6.00;2.90;;;;;;;21.68;98.46;99315.44;5022238;28;20601;-69
2023/10/13 14:50:19;;;;;;;3.83;2.25;;;;;;;21.70;97.78;99297.28;5023317;28;20052;-69
2023/10/13 14:52:48;;;;;;;5.10;2.45;;;;;;;21.74;97.76;99297.16;5028246;28;20115;-68
2023/10/13 14:55:21;;;;;;;5.38;3.00;;;;;;;21.81;97.61;99302.31;5022509;28;20120;-69
2023/10/13 14:57:50;;;;;;;8.95;3.00;;;;;;;21.76;97.35;99291.94;5026846;28;20029;-68
2023/10/13 15:00:24;;;;;;;5.47;2.63;;;;;;;21.79;97.77;99296.50;5023403;28;20034;-69
2023/10/13 15:02:51;;;;;;;8.98;3.15;;;;;;;21.78;96.28;99287.53;5024208;28;20037;-66
2023/10/13 15:05:16;;;;;;;9.00;2.42;;;;;;;21.85;95.66;99294.69;5027572;28;20510;-68
2023/10/13 15:07:44;;;;;;;6.53;2.75;;;;;;;21.81;94.50;99283.91;5026137;28;20067;-68
2023/10/13 15:10:14;;;;;;;6.53;2.67;;;;;;;21.77;94.55;99286.00;5023464;28;20581;-69
2023/10/13 15:12:44;;;;;;;5.43;3.03;;;;;;;21.87;93.96;99284.03;5024658;28;20037;-69
2023/10/13 15:15:13;;;;;;;9.45;2.75;;;;;;;21.89;93.45;99287.06;5021256;28;20064;-67
2023/10/13 15:17:40;;;;;;;8.93;2.58;;;;;;;21.95;92.87;99287.94;5021980;28;20025;-68
2023/10/13 15:20:09;;;;;;;7.18;2.83;;;;;;;21.96;91.96;99289.44;5023874;28;20490;-68
2023/10/13 15:22:36;;;;;;;4.25;2.42;;;;;;;22.05;91.61;99278.41;5028094;28;20060;-69
2023/10/13 15:25:20;;;;;;;5.57;2.78;;;;;;;21.99;91.48;99280.31;5021602;28;20021;-69
2023/10/13 15:27:55;;;;;;;12.52;2.92;;;;;;;21.98;90.82;99276.03;5023800;28;20037;-68